Accueil
METAR-TAF:

METAR-TAF

Aéroports :

Aéroport de Matsapha

Manzini, Swaziland

latitude: 26-32S, longitude: 031-18E, altitude: 641 m

Observation

Le bulletin a été fait il y a 3 heures et 25 minutes, à 10:00 UTC
Vent calme
Température 20°C
Humidité 64%
Pression 1029 hPa
Visibilité 10 km ou plus
Nuages fragmentés à une hauteur de 3500 ft

METAR: FDMS 271000Z 00000KT 9999 BKN035 20/13 Q1029 NOSIG

Heure: 15:25 (13:25 UTC)

Prévision

Le bulletin a été fait il y a 3 heures et 25 minutes, à 10:00 UTC
Prévision valable du 27 à 12 UTC au 27 à 18 UTC
Vent 5 kt de est/sud-est
Visibilité 10 km ou plus
Nuages fragmentés à une hauteur de 3500 ft
Evoluant progressivement
du 27 à 15 UTC au 27 à 17 UTC
Nuages épars à une hauteur de 3500 ft

TAF: FDMS 271000Z 2712/2718 12005KT 9999 BKN035 BECMG 2715/2717 SCT035

Observations et prévisions météorologiques de plus de 4000 aéroports (messages METAR et TAF).

Les stations disponibles sont représentées par des disques jaunes et rouges sur la carte.

Passer la souris dessus pour voir le nom de la station.

Cliquer dessus pour voir les observations et prévisions météorologiques.

Pour changer de carte: cliquez sur les boutons verts avec une croix noire pour zoomer, sur le bouton vert avec un tiret pour effectuer un zoom arrière, ou sur les flèches vertes pour les cartes adjacentes.


METAR-TAF: